Fingal, Canada
Current Conditions -  °F | °C
As of 11:00 AM on Saturday 25 Oct 2014 (Local Time) from CYXU Reporting Station
Haze Haze  
Wind Chill: 54°   Ceiling: 3200
Heat Index: 54°   Visibility: 6mi
Dew Point: 50°   Wind: 13mph
Humidity: 88%   Direction: 230°SW
Pressure: 29.74"   Gusts: 20mph
Location:  42.72°N, 81.3°W
Report Text: CYXU 251500Z 23011G17KT 6SM BR OVC032 12/10 A2974 RMK SC8 SLP074 DENSITY ALT 1000FT
Loading
Personal Weather Stations






























Interactive Weather Map
Tropical Storm Tracking
New forecast layout! Learn more

10-Day Weather Forecast

Advertisements
Track Severe Weather on mobile